Time;durP1;ratioP1;P1;durP2;ratioP2;P2;SDS_P1;SDS_P2;PMS_P1;PMS_P2;Temp;Humidity;BMP_temperature;BMP_pressure;BME280_temperature;BME280_humidity;BME280_pressure;Samples;Min_cycle;Max_cycle;Signal;HPM_P1;HPM_P2
2022/04/11 00:00:27;;;;;;;5.82;2.83;;;;;;;;;;5010889;28;20108;-64
2022/04/11 00:02:53;;;;;;;5.63;2.88;;;;;;;;;;5034209;28;20045;-65
2022/04/11 00:05:19;;;;;;;9.75;3.05;;;;;;;;;;5024901;28;20117;-63
2022/04/11 00:07:45;;;;;;;8.10;2.85;;;;;;;;;;5024844;28;20054;-65
2022/04/11 00:10:11;;;;;;;7.15;2.88;;;;;;;;;;5024927;28;20046;-64
2022/04/11 00:12:38;;;;;;;8.02;3.38;;;;;;;;;;5007384;28;20057;-64
2022/04/11 00:15:08;;;;;;;10.63;2.88;;;;;;;;;;5024946;28;20107;-64
2022/04/11 00:17:34;;;;;;;5.28;2.60;;;;;;;;;;5024805;28;20569;-64
2022/04/11 00:20:00;;;;;;;6.05;2.40;;;;;;;;;;5024946;28;20493;-64
2022/04/11 00:22:27;;;;;;;5.13;2.25;;;;;;;;;;5024688;28;20046;-64
2022/04/11 00:24:53;;;;;;;9.73;3.53;;;;;;;;;;5006933;28;20486;-65
2022/04/11 00:27:19;;;;;;;10.40;3.53;;;;;;;;;;5024738;28;20056;-64
2022/04/11 00:29:45;;;;;;;9.35;2.78;;;;;;;;;;5007160;28;20239;-64
2022/04/11 00:32:11;;;;;;;8.13;3.17;;;;;;;;;;5007128;28;20133;-64
2022/04/11 00:34:38;;;;;;;8.63;3.13;;;;;;;;;;5007304;28;20042;-64
2022/04/11 00:37:04;;;;;;;11.23;2.50;;;;;;;;;;5024604;28;20053;-64
2022/04/11 00:39:30;;;;;;;9.82;3.85;;;;;;;;;;5006879;28;20056;-64
2022/04/11 00:41:56;;;;;;;4.32;2.50;;;;;;;;;;5024682;28;20106;-64
2022/04/11 00:44:22;;;;;;;8.45;3.55;;;;;;;;;;5006771;28;20072;-64
2022/04/11 00:46:48;;;;;;;6.35;3.08;;;;;;;;;;5024644;28;20049;-63
2022/04/11 00:49:14;;;;;;;7.88;3.30;;;;;;;;;;5024521;28;20512;-64
2022/04/11 00:51:41;;;;;;;10.63;4.22;;;;;;;;;;5024708;28;20105;-63
2022/04/11 00:54:08;;;;;;;7.00;3.42;;;;;;;;;;5024429;28;20118;-64
2022/04/11 00:56:35;;;;;;;9.70;3.67;;;;;;;;;;5006619;28;20068;-64
2022/04/11 00:59:02;;;;;;;7.97;3.55;;;;;;;;;;5024601;28;20081;-64
2022/04/11 01:01:28;;;;;;;12.10;4.53;;;;;;;;;;5007071;28;20076;-63
2022/04/11 01:03:54;;;;;;;7.35;4.18;;;;;;;;;;5027775;28;20097;-64
2022/04/11 01:06:21;;;;;;;10.43;3.75;;;;;;;;;;5027578;28;20588;-64
2022/04/11 01:08:47;;;;;;;6.75;4.03;;;;;;;;;;5010183;28;20053;-63
2022/04/11 01:11:13;;;;;;;9.75;3.60;;;;;;;;;;5027627;28;20106;-63
2022/04/11 01:13:41;;;;;;;7.78;3.90;;;;;;;;;;5027668;28;20038;-64
2022/04/11 01:16:08;;;;;;;9.05;3.47;;;;;;;;;;5027839;28;20057;-64
2022/04/11 01:18:34;;;;;;;8.25;4.07;;;;;;;;;;5027329;28;20046;-64
2022/04/11 01:21:01;;;;;;;10.23;3.90;;;;;;;;;;5027467;28;20156;-64
2022/04/11 01:23:27;;;;;;;7.70;4.75;;;;;;;;;;5027402;28;20054;-64
2022/04/11 01:25:54;;;;;;;10.23;4.07;;;;;;;;;;5027338;28;20076;-64
2022/04/11 01:28:21;;;;;;;6.00;4.10;;;;;;;;;;5008860;28;20045;-64
2022/04/11 01:30:53;;;;;;;8.05;4.18;;;;;;;;;;5009904;28;20045;-64
2022/04/11 01:33:21;;;;;;;7.80;4.13;;;;;;;;;;5027194;28;20052;-64
2022/04/11 01:35:47;;;;;;;10.55;4.90;;;;;;;;;;5027330;28;20081;-64
2022/04/11 01:38:14;;;;;;;10.07;4.55;;;;;;;;;;5027041;28;20057;-64
2022/04/11 01:40:56;;;;;;;9.05;4.88;;;;;;;;;;5009859;28;20054;-64
2022/04/11 01:43:22;;;;;;;10.20;5.00;;;;;;;;;;5027341;28;20085;-63
2022/04/11 01:45:49;;;;;;;9.55;4.97;;;;;;;;;;5027227;28;20124;-64
2022/04/11 01:48:15;;;;;;;6.85;4.57;;;;;;;;;;5008882;28;20061;-64
2022/04/11 01:50:41;;;;;;;9.88;5.55;;;;;;;;;;5027057;28;20053;-64
2022/04/11 01:53:07;;;;;;;13.43;5.95;;;;;;;;;;5026927;28;20054;-64
2022/04/11 01:55:34;;;;;;;9.32;5.22;;;;;;;;;;5026685;28;20038;-64
2022/04/11 01:58:00;;;;;;;8.07;4.47;;;;;;;;;;5009382;28;20042;-64
2022/04/11 02:00:27;;;;;;;10.45;5.07;;;;;;;;;;5027102;28;20042;-64
2022/04/11 02:02:53;;;;;;;11.90;4.53;;;;;;;;;;5026973;28;20124;-64
2022/04/11 02:05:19;;;;;;;10.18;4.50;;;;;;;;;;5026684;28;20088;-64
2022/04/11 02:07:45;;;;;;;8.15;3.90;;;;;;;;;;5026381;28;20112;-64
2022/04/11 02:10:12;;;;;;;8.68;3.60;;;;;;;;;;5021930;28;20046;-63
2022/04/11 02:12:41;;;;;;;11.57;4.30;;;;;;;;;;5007372;28;20047;-63
2022/04/11 02:15:08;;;;;;;9.00;3.55;;;;;;;;;;5021121;28;20052;-63
2022/04/11 02:17:34;;;;;;;8.38;3.88;;;;;;;;;;5026761;28;20038;-63
2022/04/11 02:20:00;;;;;;;9.20;4.05;;;;;;;;;;5026649;28;20049;-63
2022/04/11 02:22:26;;;;;;;14.15;4.38;;;;;;;;;;5026416;28;20042;-63
2022/04/11 02:24:53;;;;;;;9.82;4.15;;;;;;;;;;5025839;28;20060;-65
2022/04/11 02:27:19;;;;;;;10.90;4.45;;;;;;;;;;5008713;28;20045;-64
2022/04/11 02:29:45;;;;;;;9.98;5.15;;;;;;;;;;5008794;28;20476;-63
2022/04/11 02:32:11;;;;;;;11.00;4.53;;;;;;;;;;5025942;28;20128;-64
2022/04/11 02:34:37;;;;;;;7.75;4.30;;;;;;;;;;5026493;28;20076;-64
2022/04/11 02:37:04;;;;;;;6.30;4.13;;;;;;;;;;5026349;28;20055;-64
2022/04/11 02:39:30;;;;;;;10.23;5.10;;;;;;;;;;5026143;28;20058;-64
2022/04/11 02:41:56;;;;;;;10.50;4.97;;;;;;;;;;5025725;28;20489;-63
2022/04/11 02:44:22;;;;;;;7.97;4.10;;;;;;;;;;5026311;28;20050;-63
2022/04/11 02:46:48;;;;;;;6.07;3.95;;;;;;;;;;5008222;28;20060;-64
2022/04/11 02:49:14;;;;;;;10.23;4.80;;;;;;;;;;5026128;28;20077;-64
2022/04/11 02:51:40;;;;;;;8.55;4.35;;;;;;;;;;5008539;28;20497;-63
2022/04/11 02:54:07;;;;;;;10.27;4.35;;;;;;;;;;5025490;28;20048;-63
2022/04/11 02:56:36;;;;;;;9.82;4.28;;;;;;;;;;5025835;28;20042;-63
2022/04/11 02:59:02;;;;;;;8.82;4.88;;;;;;;;;;5026013;28;20107;-63
2022/04/11 03:01:28;;;;;;;6.82;3.92;;;;;;;;;;5025823;28;20105;-63
2022/04/11 03:03:54;;;;;;;8.98;4.68;;;;;;;;;;5025511;28;20567;-64
2022/04/11 03:06:20;;;;;;;6.45;5.05;;;;;;;;;;5008065;28;20133;-63
2022/04/11 03:08:47;;;;;;;7.78;4.97;;;;;;;;;;5008179;28;20109;-63
2022/04/11 03:11:13;;;;;;;11.13;5.07;;;;;;;;;;5025638;28;20089;-63
2022/04/11 03:13:39;;;;;;;10.00;4.72;;;;;;;;;;5025271;28;20556;-63
2022/04/11 03:16:05;;;;;;;14.15;5.63;;;;;;;;;;5025622;28;20115;-63
2022/04/11 03:18:31;;;;;;;9.35;4.60;;;;;;;;;;5025672;28;20045;-63
2022/04/11 03:20:57;;;;;;;9.25;4.85;;;;;;;;;;5025353;28;20514;-63
2022/04/11 03:23:23;;;;;;;5.80;4.50;;;;;;;;;;5024865;28;20070;-63
2022/04/11 03:25:49;;;;;;;11.70;4.57;;;;;;;;;;5025072;28;20060;-63
2022/04/11 03:28:16;;;;;;;8.93;4.47;;;;;;;;;;5025273;28;20053;-64
2022/04/11 03:30:42;;;;;;;8.80;4.10;;;;;;;;;;5025284;28;20038;-63
2022/04/11 03:33:08;;;;;;;10.13;5.07;;;;;;;;;;5025116;28;20056;-63
2022/04/11 03:35:34;;;;;;;7.38;4.13;;;;;;;;;;5025431;28;20049;-63
2022/04/11 03:38:00;;;;;;;11.38;5.60;;;;;;;;;;5025053;28;20042;-63
2022/04/11 03:40:26;;;;;;;12.52;5.65;;;;;;;;;;5024924;28;20042;-63
2022/04/11 03:42:52;;;;;;;9.55;4.35;;;;;;;;;;5024921;28;20174;-63
2022/04/11 03:45:18;;;;;;;8.25;4.88;;;;;;;;;;5025196;28;20073;-63
2022/04/11 03:47:45;;;;;;;8.05;4.25;;;;;;;;;;5024893;28;20046;-63
2022/04/11 03:50:11;;;;;;;9.73;4.20;;;;;;;;;;5025054;28;20480;-64
2022/04/11 03:52:38;;;;;;;12.60;4.60;;;;;;;;;;5024941;28;20289;-62
2022/04/11 03:55:04;;;;;;;7.68;4.15;;;;;;;;;;5025078;28;20080;-62
2022/04/11 03:57:30;;;;;;;10.32;5.03;;;;;;;;;;5024752;28;20406;-63
2022/04/11 03:59:56;;;;;;;10.20;4.85;;;;;;;;;;5024845;28;20080;-63
2022/04/11 04:02:22;;;;;;;9.50;5.30;;;;;;;;;;5024627;28;20133;-64
2022/04/11 04:04:48;;;;;;;11.55;5.82;;;;;;;;;;5024987;28;20041;-63
2022/04/11 04:07:15;;;;;;;12.35;5.28;;;;;;;;;;5024492;28;20357;-63
2022/04/11 04:09:41;;;;;;;7.22;4.45;;;;;;;;;;5024935;28;20092;-63
2022/04/11 04:12:07;;;;;;;7.65;4.43;;;;;;;;;;5024736;28;20572;-63
2022/04/11 04:14:36;;;;;;;8.73;4.22;;;;;;;;;;5026121;28;20049;-63
2022/04/11 04:17:03;;;;;;;6.10;4.20;;;;;;;;;;5024470;28;20069;-63
2022/04/11 04:19:29;;;;;;;7.90;4.32;;;;;;;;;;5004245;28;20053;-64
2022/04/11 04:21:55;;;;;;;9.45;3.80;;;;;;;;;;5020703;28;20045;-63
2022/04/11 04:24:22;;;;;;;7.20;4.07;;;;;;;;;;4986609;28;20069;-63
2022/04/11 04:26:51;;;;;;;8.50;4.78;;;;;;;;;;4989742;28;20070;-63
2022/04/11 04:29:17;;;;;;;14.75;4.97;;;;;;;;;;4999036;28;20048;-63
2022/04/11 04:31:44;;;;;;;12.18;4.78;;;;;;;;;;4986542;28;20043;-63
2022/04/11 04:34:10;;;;;;;5.47;4.30;;;;;;;;;;4973349;28;20529;-63
2022/04/11 04:36:36;;;;;;;9.18;4.63;;;;;;;;;;4984400;28;20046;-63
2022/04/11 04:39:02;;;;;;;9.32;4.35;;;;;;;;;;4993194;28;20054;-63
2022/04/11 04:41:29;;;;;;;12.70;4.45;;;;;;;;;;4999501;28;20093;-63
2022/04/11 04:43:55;;;;;;;7.05;4.18;;;;;;;;;;5006320;28;20057;-63
2022/04/11 04:46:21;;;;;;;7.72;4.00;;;;;;;;;;4991147;28;20050;-63
2022/04/11 04:48:47;;;;;;;6.43;4.32;;;;;;;;;;4989980;28;20133;-64
2022/04/11 04:51:13;;;;;;;9.60;4.28;;;;;;;;;;5001701;28;20047;-64
2022/04/11 04:53:39;;;;;;;8.75;4.38;;;;;;;;;;4971648;28;20039;-64
2022/04/11 04:56:05;;;;;;;5.47;4.25;;;;;;;;;;5007136;28;20114;-64
2022/04/11 04:58:32;;;;;;;7.35;4.32;;;;;;;;;;5008551;28;20109;-63
2022/04/11 05:00:58;;;;;;;5.97;4.22;;;;;;;;;;5008432;28;20042;-63
2022/04/11 05:03:24;;;;;;;11.40;4.80;;;;;;;;;;5008323;28;20050;-63
2022/04/11 05:05:50;;;;;;;8.73;4.53;;;;;;;;;;5000989;28;20041;-64
2022/04/11 05:08:16;;;;;;;10.13;5.30;;;;;;;;;;4988923;28;20053;-63
2022/04/11 05:10:42;;;;;;;10.30;4.18;;;;;;;;;;5003709;28;20046;-64
2022/04/11 05:13:08;;;;;;;9.25;4.63;;;;;;;;;;5016111;28;20088;-64
2022/04/11 05:15:34;;;;;;;8.52;4.22;;;;;;;;;;5008240;28;20494;-63
2022/04/11 05:18:00;;;;;;;19.08;5.45;;;;;;;;;;4974713;28;20050;-64
2022/04/11 05:20:26;;;;;;;11.32;5.10;;;;;;;;;;5008019;28;20050;-64
2022/04/11 05:22:52;;;;;;;10.95;6.30;;;;;;;;;;5000869;28;20089;-63
2022/04/11 05:25:19;;;;;;;8.05;5.25;;;;;;;;;;5007777;28;20081;-64
2022/04/11 05:27:45;;;;;;;8.20;4.22;;;;;;;;;;5008072;28;20058;-63
2022/04/11 05:30:11;;;;;;;9.95;4.07;;;;;;;;;;5007873;28;20042;-63
2022/04/11 05:32:37;;;;;;;6.68;4.30;;;;;;;;;;5015464;28;20057;-63
2022/04/11 05:35:04;;;;;;;6.43;3.47;;;;;;;;;;5009838;28;20496;-63
2022/04/11 05:37:30;;;;;;;7.68;4.20;;;;;;;;;;5009792;28;20060;-63
2022/04/11 05:39:56;;;;;;;7.07;3.45;;;;;;;;;;5027477;28;20042;-63
2022/04/11 05:42:22;;;;;;;10.38;3.95;;;;;;;;;;5026901;28;20148;-63
2022/04/11 05:44:48;;;;;;;11.88;4.38;;;;;;;;;;5027178;28;20049;-64
2022/04/11 05:47:14;;;;;;;7.50;3.55;;;;;;;;;;5009217;28;20046;-63
2022/04/11 05:49:40;;;;;;;14.68;3.60;;;;;;;;;;5025541;28;20042;-64
2022/04/11 05:52:08;;;;;;;6.55;3.90;;;;;;;;;;5009239;28;20132;-64
2022/04/11 05:54:40;;;;;;;9.98;3.92;;;;;;;;;;5026969;28;20046;-64
2022/04/11 05:57:06;;;;;;;8.15;3.83;;;;;;;;;;5026687;28;20045;-64
2022/04/11 05:59:32;;;;;;;9.18;4.07;;;;;;;;;;5026760;28;20048;-65
2022/04/11 06:01:58;;;;;;;13.18;4.28;;;;;;;;;;5009053;28;20049;-64
2022/04/11 06:04:24;;;;;;;11.88;4.88;;;;;;;;;;5026647;28;20046;-64
2022/04/11 06:06:50;;;;;;;7.38;4.03;;;;;;;;;;5026844;28;20057;-64
2022/04/11 06:09:16;;;;;;;7.80;4.00;;;;;;;;;;5008689;28;20121;-64
2022/04/11 06:11:42;;;;;;;6.32;4.22;;;;;;;;;;5026602;28;20049;-63
2022/04/11 06:14:09;;;;;;;9.13;3.65;;;;;;;;;;5026629;28;20093;-63
2022/04/11 06:16:35;;;;;;;7.45;3.85;;;;;;;;;;5026547;28;20049;-64
2022/04/11 06:19:01;;;;;;;6.80;3.40;;;;;;;;;;5041111;28;20053;-64
2022/04/11 06:21:27;;;;;;;6.93;3.40;;;;;;;;;;5008779;28;20045;-64
2022/04/11 06:23:53;;;;;;;8.82;3.00;;;;;;;;;;5024038;28;20093;-63
2022/04/11 06:26:19;;;;;;;7.25;3.20;;;;;;;;;;5026303;28;20046;-64
2022/04/11 06:28:45;;;;;;;6.68;3.63;;;;;;;;;;5026346;28;20118;-63
2022/04/11 06:31:14;;;;;;;6.82;3.13;;;;;;;;;;5026545;28;20050;-63
2022/04/11 06:33:40;;;;;;;13.10;3.35;;;;;;;;;;5026167;28;20050;-64
2022/04/11 06:36:07;;;;;;;10.50;3.15;;;;;;;;;;5026254;28;20425;-64
2022/04/11 06:38:33;;;;;;;4.70;3.00;;;;;;;;;;5008640;28;20077;-63
2022/04/11 06:40:59;;;;;;;8.68;3.10;;;;;;;;;;5025996;28;20052;-63
2022/04/11 06:43:25;;;;;;;6.93;3.22;;;;;;;;;;5026145;28;20050;-64
2022/04/11 06:45:52;;;;;;;9.38;3.28;;;;;;;;;;5026150;28;20042;-64
2022/04/11 06:48:18;;;;;;;6.93;3.17;;;;;;;;;;5008440;28;20061;-64
2022/04/11 06:50:44;;;;;;;4.78;2.95;;;;;;;;;;5025648;28;20477;-64
2022/04/11 06:53:10;;;;;;;5.32;2.30;;;;;;;;;;5007889;28;20061;-64
2022/04/11 06:55:37;;;;;;;7.82;2.80;;;;;;;;;;5025565;28;20073;-64
2022/04/11 06:58:03;;;;;;;7.03;2.90;;;;;;;;;;5025948;28;20126;-64
2022/04/11 07:00:29;;;;;;;6.43;2.33;;;;;;;;;;5025370;28;20069;-64
2022/04/11 07:02:55;;;;;;;10.43;2.63;;;;;;;;;;5025619;28;20664;-64
2022/04/11 07:05:22;;;;;;;7.68;2.60;;;;;;;;;;5025765;28;20046;-64
2022/04/11 07:07:49;;;;;;;9.30;2.75;;;;;;;;;;5007991;28;20101;-64
2022/04/11 07:10:15;;;;;;;4.53;2.63;;;;;;;;;;5040279;28;20572;-64
2022/04/11 07:12:42;;;;;;;7.38;3.17;;;;;;;;;;5025670;28;20114;-64
2022/04/11 07:15:09;;;;;;;11.00;2.92;;;;;;;;;;5025256;28;20429;-64
2022/04/11 07:17:35;;;;;;;5.45;2.55;;;;;;;;;;5024823;28;20048;-64
2022/04/11 07:20:02;;;;;;;7.07;3.10;;;;;;;;;;5025401;28;20049;-64
2022/04/11 07:22:28;;;;;;;5.53;2.65;;;;;;;;;;5025332;28;20077;-64
2022/04/11 07:24:55;;;;;;;5.50;2.35;;;;;;;;;;5025235;28;20081;-66
2022/04/11 07:27:21;;;;;;;11.65;3.00;;;;;;;;;;5024915;28;20056;-64
2022/04/11 07:29:47;;;;;;;5.65;1.95;;;;;;;;;;5025197;28;20109;-64
2022/04/11 07:32:13;;;;;;;8.00;2.42;;;;;;;;;;5025098;28;20049;-64
2022/04/11 07:34:40;;;;;;;4.63;2.22;;;;;;;;;;5025344;28;20085;-64
2022/04/11 07:37:07;;;;;;;5.10;2.00;;;;;;;;;;5024841;28;20497;-64
2022/04/11 07:39:34;;;;;;;8.25;2.20;;;;;;;;;;5025523;28;20124;-65
2022/04/11 07:42:00;;;;;;;6.30;2.20;;;;;;;;;;5025940;28;20528;-64
2022/04/11 07:44:27;;;;;;;5.25;2.20;;;;;;;;;;5024334;28;20077;-64
2022/04/11 07:46:53;;;;;;;3.42;2.13;;;;;;;;;;5022689;28;20053;-64
2022/04/11 07:49:19;;;;;;;5.70;2.28;;;;;;;;;;5024286;28;20041;-63
2022/04/11 07:51:45;;;;;;;4.45;1.77;;;;;;;;;;5016145;28;20045;-63
2022/04/11 07:54:11;;;;;;;5.50;1.95;;;;;;;;;;5025342;28;20042;-63
2022/04/11 07:56:37;;;;;;;4.30;1.80;;;;;;;;;;5031532;28;20045;-62
2022/04/11 07:59:03;;;;;;;5.53;2.63;;;;;;;;;;5024778;28;20624;-64
2022/04/11 08:01:30;;;;;;;6.47;2.30;;;;;;;;;;5024250;28;20073;-64
2022/04/11 08:03:56;;;;;;;5.75;1.98;;;;;;;;;;5007346;28;20066;-64
2022/04/11 08:06:22;;;;;;;7.68;1.63;;;;;;;;;;5024980;28;20046;-63
2022/04/11 08:08:48;;;;;;;7.88;2.17;;;;;;;;;;5025065;28;20042;-63
2022/04/11 08:11:15;;;;;;;4.45;1.77;;;;;;;;;;5023160;28;20046;-64
2022/04/11 08:13:42;;;;;;;4.25;2.08;;;;;;;;;;5024248;28;20053;-64
2022/04/11 08:16:08;;;;;;;6.85;2.70;;;;;;;;;;5023257;28;20038;-63
2022/04/11 08:18:35;;;;;;;5.30;2.63;;;;;;;;;;5023817;28;20053;-63
2022/04/11 08:21:02;;;;;;;3.38;1.42;;;;;;;;;;5024157;28;20046;-64
2022/04/11 08:23:28;;;;;;;5.75;1.80;;;;;;;;;;5004886;28;20062;-64
2022/04/11 08:25:55;;;;;;;5.43;1.70;;;;;;;;;;5024741;28;20046;-69
2022/04/11 08:28:21;;;;;;;8.95;1.75;;;;;;;;;;5044336;28;20178;-67
2022/04/11 08:30:47;;;;;;;5.13;1.40;;;;;;;;;;5027742;28;20050;-63
2022/04/11 08:33:14;;;;;;;5.75;1.10;;;;;;;;;;5002857;28;20060;-63
2022/04/11 08:35:40;;;;;;;2.85;1.05;;;;;;;;;;5038292;28;20075;-66
2022/04/11 08:38:06;;;;;;;8.90;2.05;;;;;;;;;;5007833;28;20101;-65
2022/04/11 08:40:32;;;;;;;5.70;1.38;;;;;;;;;;5023321;28;20467;-65
2022/04/11 08:42:59;;;;;;;3.85;1.48;;;;;;;;;;5005550;28;20054;-65
2022/04/11 08:45:27;;;;;;;5.38;1.55;;;;;;;;;;5007315;28;20509;-65
2022/04/11 08:47:56;;;;;;;3.45;1.60;;;;;;;;;;5023525;28;20552;-65
2022/04/11 08:50:26;;;;;;;4.15;1.45;;;;;;;;;;5002038;28;20070;-66
2022/04/11 08:52:53;;;;;;;3.90;1.67;;;;;;;;;;5000975;28;20102;-66
2022/04/11 08:55:19;;;;;;;7.50;1.20;;;;;;;;;;5015704;28;20057;-67
2022/04/11 08:57:46;;;;;;;6.60;1.50;;;;;;;;;;5009108;28;20133;-66
2022/04/11 09:00:16;;;;;;;6.78;2.00;;;;;;;;;;5022465;28;20049;-68
2022/04/11 09:02:43;;;;;;;9.45;1.60;;;;;;;;;;5017004;28;20524;-66
2022/04/11 09:05:09;;;;;;;7.73;1.50;;;;;;;;;;5023229;28;20065;-65
2022/04/11 09:07:46;;;;;;;5.53;1.77;;;;;;;;;;5038243;28;20132;-66
2022/04/11 09:10:12;;;;;;;5.10;1.65;;;;;;;;;;5010598;28;20526;-67
2022/04/11 09:12:46;;;;;;;7.65;1.63;;;;;;;;;;5024432;28;20046;-66
2022/04/11 09:15:12;;;;;;;3.25;1.50;;;;;;;;;;5014022;28;20061;-66
2022/04/11 09:17:45;;;;;;;6.30;1.90;;;;;;;;;;5011725;28;20552;-67
2022/04/11 09:20:15;;;;;;;6.68;1.90;;;;;;;;;;5018250;28;20038;-66
2022/04/11 09:22:42;;;;;;;3.88;1.23;;;;;;;;;;5016834;28;20038;-66
2022/04/11 09:25:16;;;;;;;5.63;1.17;;;;;;;;;;5008867;28;20058;-66
2022/04/11 09:27:42;;;;;;;2.47;0.98;;;;;;;;;;5027464;28;20485;-73
2022/04/11 09:30:19;;;;;;;3.63;1.15;;;;;;;;;;5025111;28;20050;-64
2022/04/11 09:33:15;;;;;;;4.32;1.10;;;;;;;;;;5014957;28;20463;-71
2022/04/11 09:35:44;;;;;;;4.07;1.42;;;;;;;;;;5012504;28;20105;-70
2022/04/11 09:38:17;;;;;;;5.57;1.30;;;;;;;;;;5026279;28;20038;-67
2022/04/11 09:40:50;;;;;;;5.47;1.60;;;;;;;;;;5026368;28;20049;-67
2022/04/11 09:43:17;;;;;;;6.55;2.15;;;;;;;;;;5019218;28;20125;-69
2022/04/11 09:45:45;;;;;;;5.63;1.80;;;;;;;;;;5007695;28;20120;-67
2022/04/11 09:48:16;;;;;;;5.82;1.90;;;;;;;;;;5023160;28;20050;-67
2022/04/11 09:50:42;;;;;;;5.40;1.63;;;;;;;;;;5004438;28;20088;-65
2022/04/11 09:53:13;;;;;;;5.40;1.90;;;;;;;;;;5022495;28;20168;-66
2022/04/11 09:55:39;;;;;;;5.43;1.45;;;;;;;;;;5021800;28;20046;-67
2022/04/11 09:58:06;;;;;;;5.05;1.58;;;;;;;;;;5025105;28;20051;-65
2022/04/11 10:00:43;;;;;;;4.18;1.70;;;;;;;;;;5020352;28;20561;-68
2022/04/11 10:03:09;;;;;;;10.35;2.10;;;;;;;;;;5007638;28;20104;-66
2022/04/11 10:05:36;;;;;;;3.53;1.75;;;;;;;;;;5023137;28;20054;-69
2022/04/11 10:08:06;;;;;;;4.40;1.33;;;;;;;;;;5020635;28;20101;-69
2022/04/11 10:10:38;;;;;;;4.80;1.40;;;;;;;;;;5007068;28;20371;-65
2022/04/11 10:13:05;;;;;;;3.47;1.63;;;;;;;;;;5019682;28;20085;-67
2022/04/11 10:15:32;;;;;;;8.90;1.80;;;;;;;;;;5023084;28;20541;-66
2022/04/11 10:17:58;;;;;;;7.38;1.60;;;;;;;;;;5024754;28;20045;-67
2022/04/11 10:20:28;;;;;;;6.25;2.20;;;;;;;;;;5021770;28;20051;-67
2022/04/11 10:22:56;;;;;;;5.03;1.75;;;;;;;;;;5017897;28;20049;-66
2022/04/11 10:25:23;;;;;;;3.47;1.25;;;;;;;;;;5024959;28;20496;-67
2022/04/11 10:28:10;;;;;;;2.60;1.40;;;;;;;;;;5026145;28;20468;-67
2022/04/11 10:30:36;;;;;;;4.38;1.50;;;;;;;;;;5007112;28;20054;-68
2022/04/11 10:33:02;;;;;;;3.60;1.52;;;;;;;;;;5026279;28;20049;-67
2022/04/11 10:35:54;;;;;;;2.25;1.40;;;;;;;;;;4991632;28;20057;-67
2022/04/11 10:38:21;;;;;;;4.68;1.50;;;;;;;;;;5016038;28;20129;-67
2022/04/11 10:40:48;;;;;;;4.75;1.10;;;;;;;;;;5040199;28;20046;-67
2022/04/11 10:43:15;;;;;;;2.17;1.20;;;;;;;;;;5025906;28;20042;-67
2022/04/11 10:45:42;;;;;;;3.30;1.30;;;;;;;;;;5025873;28;20061;-68
2022/04/11 10:48:12;;;;;;;2.33;1.30;;;;;;;;;;5025232;28;20046;-67
2022/04/11 10:50:39;;;;;;;3.78;1.55;;;;;;;;;;5024381;28;20081;-67
2022/04/11 10:53:07;;;;;;;3.88;2.25;;;;;;;;;;5025885;28;20080;-68
2022/04/11 10:55:35;;;;;;;5.03;1.40;;;;;;;;;;5025548;28;20053;-67
2022/04/11 10:58:01;;;;;;;5.78;1.70;;;;;;;;;;5025372;28;20057;-67
2022/04/11 11:00:34;;;;;;;8.05;1.80;;;;;;;;;;5024864;28;20049;-67
2022/04/11 11:03:05;;;;;;;5.53;1.77;;;;;;;;;;5028425;28;20046;-67
2022/04/11 11:05:44;;;;;;;5.65;1.45;;;;;;;;;;5019079;28;20030;-67
2022/04/11 11:08:10;;;;;;;3.58;1.63;;;;;;;;;;5025159;28;20053;-67
2022/04/11 11:10:53;;;;;;;4.30;1.75;;;;;;;;;;5024487;28;20072;-73
2022/04/11 11:13:38;;;;;;;5.30;1.70;;;;;;;;;;5026026;28;20050;-72
2022/04/11 11:16:07;;;;;;;3.78;1.73;;;;;;;;;;4996620;28;20137;-69
2022/04/11 11:18:48;;;;;;;3.58;1.60;;;;;;;;;;5024275;28;20485;-74
2022/04/11 11:21:19;;;;;;;4.50;1.92;;;;;;;;;;5019271;28;20046;-75
2022/04/11 11:24:03;;;;;;;5.60;1.65;;;;;;;;;;5021214;28;20045;-70
2022/04/11 11:26:49;;;;;;;3.78;1.73;;;;;;;;;;5016819;28;20081;-68
2022/04/11 11:29:18;;;;;;;3.35;1.55;;;;;;;;;;5018388;28;20058;-70
2022/04/11 11:31:45;;;;;;;4.07;1.95;;;;;;;;;;5015557;28;20056;-70
2022/04/11 11:34:12;;;;;;;4.60;1.88;;;;;;;;;;5016904;28;20097;-70
2022/04/11 11:36:39;;;;;;;4.10;1.57;;;;;;;;;;5023912;28;20151;-64
2022/04/11 11:39:19;;;;;;;5.13;2.10;;;;;;;;;;5023887;28;20042;-68
2022/04/11 11:41:45;;;;;;;7.97;1.90;;;;;;;;;;5006619;28;20046;-68
2022/04/11 11:44:12;;;;;;;5.45;2.00;;;;;;;;;;5015147;28;20050;-69
2022/04/11 11:46:51;;;;;;;3.13;1.95;;;;;;;;;;5021523;28;20048;-69
2022/04/11 11:49:18;;;;;;;5.30;1.65;;;;;;;;;;5018096;28;20045;-75
2022/04/11 11:51:44;;;;;;;6.47;2.40;;;;;;;;;;5004646;28;20042;-68
2022/04/11 11:54:11;;;;;;;5.95;1.80;;;;;;;;;;4998249;28;20050;-70
2022/04/11 11:56:44;;;;;;;4.10;2.38;;;;;;;;;;5023615;28;20046;-67
2022/04/11 11:59:17;;;;;;;3.75;1.90;;;;;;;;;;5023936;28;20077;-68
2022/04/11 12:04:18;;;;;;;5.15;2.00;;;;;;;;;;5026742;28;20052;-68
2022/04/11 12:04:39;;;;;;;7.00;2.10;;;;;;;;;;5031248;28;20052;-68
2022/04/11 12:07:05;;;;;;;4.32;2.17;;;;;;;;;;5024340;28;20053;-68
2022/04/11 12:09:39;;;;;;;5.40;2.13;;;;;;;;;;5034004;28;20041;-68
2022/04/11 12:12:05;;;;;;;6.00;2.63;;;;;;;;;;5010567;28;20049;-67
2022/04/11 12:14:50;;;;;;;5.10;2.30;;;;;;;;;;5033290;28;20045;-67
2022/04/11 12:17:16;;;;;;;3.92;1.73;;;;;;;;;;5023123;28;20465;-67
2022/04/11 12:19:42;;;;;;;6.95;1.98;;;;;;;;;;5014092;28;20607;-67
2022/04/11 12:22:12;;;;;;;7.47;2.38;;;;;;;;;;5037133;28;20136;-67
2022/04/11 12:24:39;;;;;;;3.45;1.63;;;;;;;;;;5043358;28;20123;-67
2022/04/11 12:27:06;;;;;;;4.57;2.28;;;;;;;;;;5017357;28;20055;-67
2022/04/11 12:29:39;;;;;;;3.85;1.90;;;;;;;;;;5017274;28;20049;-67
2022/04/11 12:32:10;;;;;;;5.07;2.30;;;;;;;;;;4999951;28;20098;-67
2022/04/11 12:34:38;;;;;;;9.52;2.58;;;;;;;;;;5024164;28;20050;-67
2022/04/11 12:37:05;;;;;;;3.60;1.98;;;;;;;;;;5006545;28;20413;-67
2022/04/11 12:39:32;;;;;;;4.75;2.00;;;;;;;;;;5023787;28;20627;-67
2022/04/11 12:41:58;;;;;;;4.80;1.92;;;;;;;;;;5024251;28;20093;-67
2022/04/11 12:44:37;;;;;;;4.38;2.10;;;;;;;;;;5006287;28;20390;-67
2022/04/11 12:47:03;;;;;;;3.08;1.88;;;;;;;;;;5006279;28;20065;-67
2022/04/11 12:49:44;;;;;;;7.55;2.40;;;;;;;;;;5024296;28;20072;-68
2022/04/11 12:52:11;;;;;;;3.20;1.80;;;;;;;;;;5023937;28;20053;-67
2022/04/11 12:54:41;;;;;;;3.17;2.10;;;;;;;;;;5024500;28;20097;-67
2022/04/11 12:57:08;;;;;;;4.65;1.90;;;;;;;;;;5023922;28;20129;-67
2022/04/11 12:59:35;;;;;;;8.40;2.40;;;;;;;;;;5027042;28;20050;-67
2022/04/11 13:02:05;;;;;;;5.30;2.33;;;;;;;;;;5008985;28;20070;-67
2022/04/11 13:04:32;;;;;;;5.75;1.95;;;;;;;;;;5027500;28;20050;-68
2022/04/11 13:06:58;;;;;;;3.28;2.05;;;;;;;;;;5008488;28;20046;-67
2022/04/11 13:09:25;;;;;;;6.57;2.35;;;;;;;;;;5024451;28;20097;-68
2022/04/11 13:11:51;;;;;;;3.72;2.05;;;;;;;;;;5027562;28;20122;-67
2022/04/11 13:14:18;;;;;;;6.35;2.42;;;;;;;;;;5027378;28;20046;-68
2022/04/11 13:19:29;;;;;;;3.13;2.03;;;;;;;;;;5026131;28;20038;-68
2022/04/11 13:21:55;;;;;;;3.87;2.00;;;;;;;;;;5026182;28;20042;-68
2022/04/11 13:27:56;;;;;;;4.40;2.30;;;;;;;;;;5015760;28;20080;-67
2022/04/11 13:30:22;;;;;;;6.60;2.65;;;;;;;;;;5023417;28;20050;-67
2022/04/11 13:32:49;;;;;;;6.35;2.42;;;;;;;;;;5024085;28;20042;-68
2022/04/11 13:35:15;;;;;;;5.85;2.30;;;;;;;;;;5006343;28;20042;-67
2022/04/11 13:37:41;;;;;;;5.90;2.25;;;;;;;;;;5021558;28;20049;-68
2022/04/11 13:40:08;;;;;;;3.80;2.38;;;;;;;;;;5025083;28;20068;-68
2022/04/11 13:42:34;;;;;;;4.00;2.50;;;;;;;;;;5005594;28;20077;-67
2022/04/11 13:45:00;;;;;;;7.30;2.47;;;;;;;;;;5025458;28;20053;-67
2022/04/11 13:47:27;;;;;;;5.05;2.33;;;;;;;;;;5022099;28;20097;-68
2022/04/11 13:49:53;;;;;;;3.38;2.30;;;;;;;;;;5024287;28;20062;-68
2022/04/11 13:52:20;;;;;;;5.33;2.53;;;;;;;;;;5017037;28;20076;-68
2022/04/11 13:54:46;;;;;;;6.78;2.38;;;;;;;;;;5005298;28;20052;-68
2022/04/11 13:57:13;;;;;;;5.07;2.50;;;;;;;;;;5022986;28;20065;-68
2022/04/11 13:59:40;;;;;;;5.15;2.60;;;;;;;;;;5024718;28;20045;-68
2022/04/11 14:02:09;;;;;;;6.10;2.67;;;;;;;;;;5026025;28;21438;-68
2022/04/11 14:04:35;;;;;;;4.43;2.03;;;;;;;;;;5023049;28;20056;-67
2022/04/11 14:07:01;;;;;;;5.20;2.40;;;;;;;;;;5022040;28;20042;-67
2022/04/11 14:09:27;;;;;;;5.15;2.65;;;;;;;;;;5021212;28;20098;-68
2022/04/11 14:11:54;;;;;;;4.65;2.55;;;;;;;;;;5023494;28;20092;-67
2022/04/11 14:14:20;;;;;;;5.13;2.53;;;;;;;;;;5020133;28;20042;-67
2022/04/11 14:16:46;;;;;;;4.97;2.58;;;;;;;;;;4999377;28;20500;-67
2022/04/11 14:19:12;;;;;;;4.93;2.22;;;;;;;;;;5025174;28;20038;-67
2022/04/11 14:21:38;;;;;;;5.50;2.42;;;;;;;;;;5024379;28;20069;-67
2022/04/11 14:24:04;;;;;;;3.33;2.13;;;;;;;;;;5024511;28;20110;-67
2022/04/11 14:26:30;;;;;;;5.28;2.60;;;;;;;;;;5017704;28;20052;-67
2022/04/11 14:28:57;;;;;;;7.80;3.10;;;;;;;;;;5019619;28;20046;-68
2022/04/11 14:31:23;;;;;;;4.40;2.40;;;;;;;;;;5025720;28;20057;-68
2022/04/11 14:33:49;;;;;;;3.63;2.45;;;;;;;;;;5023246;28;20041;-68
2022/04/11 14:36:15;;;;;;;4.30;2.47;;;;;;;;;;5024166;28;20038;-69
2022/04/11 14:38:41;;;;;;;2.77;1.70;;;;;;;;;;5021456;28;20517;-69
2022/04/11 14:41:08;;;;;;;4.47;2.57;;;;;;;;;;5024148;28;20388;-68
2022/04/11 14:43:38;;;;;;;5.13;2.50;;;;;;;;;;5029415;28;20042;-68
2022/04/11 14:46:04;;;;;;;5.32;2.92;;;;;;;;;;5019339;28;20048;-68
2022/04/11 14:48:31;;;;;;;5.57;2.72;;;;;;;;;;5023003;28;20073;-69